sensor_id;sensor_type;location;lat;lon;timestamp;P1;durP1;ratioP1;P2;durP2;ratioP2
13404;SDS011;6773;51.192;7.024;2022-08-16T00:01:07;5.65;;;3.53;;
13404;SDS011;6773;51.192;7.024;2022-08-16T00:03:33;4.05;;;3.72;;
13404;SDS011;6773;51.192;7.024;2022-08-16T00:05:59;5.55;;;3.65;;
13404;SDS011;6773;51.192;7.024;2022-08-16T00:08:25;4.85;;;3.40;;
13404;SDS011;6773;51.192;7.024;2022-08-16T00:10:51;4.40;;;4.00;;
13404;SDS011;6773;51.192;7.024;2022-08-16T00:13:16;3.78;;;3.42;;
13404;SDS011;6773;51.192;7.024;2022-08-16T00:15:44;4.15;;;3.67;;
13404;SDS011;6773;51.192;7.024;2022-08-16T00:18:13;4.53;;;3.85;;
13404;SDS011;6773;51.192;7.024;2022-08-16T00:20:41;4.30;;;3.83;;
13404;SDS011;6773;51.192;7.024;2022-08-16T00:23:07;5.85;;;3.80;;
13404;SDS011;6773;51.192;7.024;2022-08-16T00:25:33;4.32;;;3.92;;
13404;SDS011;6773;51.192;7.024;2022-08-16T00:27:59;4.82;;;4.00;;
13404;SDS011;6773;51.192;7.024;2022-08-16T00:30:25;4.57;;;4.18;;
13404;SDS011;6773;51.192;7.024;2022-08-16T00:32:52;4.00;;;3.70;;
13404;SDS011;6773;51.192;7.024;2022-08-16T00:35:24;4.05;;;3.75;;
13404;SDS011;6773;51.192;7.024;2022-08-16T00:37:56;4.88;;;4.25;;
13404;SDS011;6773;51.192;7.024;2022-08-16T00:40:24;5.32;;;4.20;;
13404;SDS011;6773;51.192;7.024;2022-08-16T00:42:54;4.28;;;3.88;;
13404;SDS011;6773;51.192;7.024;2022-08-16T00:47:58;4.43;;;4.03;;
13404;SDS011;6773;51.192;7.024;2022-08-16T00:50:27;5.03;;;4.30;;
13404;SDS011;6773;51.192;7.024;2022-08-16T00:52:54;4.50;;;4.10;;
13404;SDS011;6773;51.192;7.024;2022-08-16T00:55:20;7.30;;;4.45;;
13404;SDS011;6773;51.192;7.024;2022-08-16T00:57:49;5.57;;;4.15;;
13404;SDS011;6773;51.192;7.024;2022-08-16T01:00:17;4.38;;;3.97;;
13404;SDS011;6773;51.192;7.024;2022-08-16T01:02:42;6.03;;;4.35;;
13404;SDS011;6773;51.192;7.024;2022-08-16T01:05:08;5.30;;;4.28;;
13404;SDS011;6773;51.192;7.024;2022-08-16T01:07:34;5.43;;;3.90;;
13404;SDS011;6773;51.192;7.024;2022-08-16T01:10:00;5.78;;;4.07;;
13404;SDS011;6773;51.192;7.024;2022-08-16T01:12:26;4.93;;;4.05;;
13404;SDS011;6773;51.192;7.024;2022-08-16T01:14:53;5.68;;;4.55;;
13404;SDS011;6773;51.192;7.024;2022-08-16T01:17:22;4.32;;;4.00;;
13404;SDS011;6773;51.192;7.024;2022-08-16T01:19:51;6.05;;;4.28;;
13404;SDS011;6773;51.192;7.024;2022-08-16T01:22:35;5.13;;;4.63;;
13404;SDS011;6773;51.192;7.024;2022-08-16T01:25:12;4.78;;;4.28;;
13404;SDS011;6773;51.192;7.024;2022-08-16T01:27:50;4.55;;;4.05;;
13404;SDS011;6773;51.192;7.024;2022-08-16T01:30:20;5.18;;;4.00;;
13404;SDS011;6773;51.192;7.024;2022-08-16T01:32:49;5.03;;;4.10;;
13404;SDS011;6773;51.192;7.024;2022-08-16T01:35:18;4.63;;;4.22;;
13404;SDS011;6773;51.192;7.024;2022-08-16T01:37:50;4.72;;;4.25;;
13404;SDS011;6773;51.192;7.024;2022-08-16T01:40:19;4.60;;;4.20;;
13404;SDS011;6773;51.192;7.024;2022-08-16T01:42:51;5.57;;;4.07;;
13404;SDS011;6773;51.192;7.024;2022-08-16T01:45:18;4.75;;;4.25;;
13404;SDS011;6773;51.192;7.024;2022-08-16T01:47:46;4.88;;;4.22;;
13404;SDS011;6773;51.192;7.024;2022-08-16T01:50:14;6.72;;;4.30;;
13404;SDS011;6773;51.192;7.024;2022-08-16T01:52:40;4.68;;;4.15;;
13404;SDS011;6773;51.192;7.024;2022-08-16T01:55:07;3.80;;;3.50;;
13404;SDS011;6773;51.192;7.024;2022-08-16T01:57:33;6.32;;;4.13;;
13404;SDS011;6773;51.192;7.024;2022-08-16T02:00:00;4.38;;;3.97;;
13404;SDS011;6773;51.192;7.024;2022-08-16T02:02:26;5.50;;;4.05;;
13404;SDS011;6773;51.192;7.024;2022-08-16T02:04:52;4.20;;;3.80;;
13404;SDS011;6773;51.192;7.024;2022-08-16T02:07:18;5.25;;;4.03;;
13404;SDS011;6773;51.192;7.024;2022-08-16T02:09:46;5.47;;;4.03;;
13404;SDS011;6773;51.192;7.024;2022-08-16T02:12:12;4.88;;;4.03;;
13404;SDS011;6773;51.192;7.024;2022-08-16T02:14:40;4.53;;;4.13;;
13404;SDS011;6773;51.192;7.024;2022-08-16T02:17:06;4.78;;;4.00;;
13404;SDS011;6773;51.192;7.024;2022-08-16T02:19:35;3.80;;;3.50;;
13404;SDS011;6773;51.192;7.024;2022-08-16T02:22:03;4.75;;;4.15;;
13404;SDS011;6773;51.192;7.024;2022-08-16T02:24:29;4.63;;;3.85;;
13404;SDS011;6773;51.192;7.024;2022-08-16T02:26:56;5.18;;;3.90;;
13404;SDS011;6773;51.192;7.024;2022-08-16T02:29:22;4.07;;;3.70;;
13404;SDS011;6773;51.192;7.024;2022-08-16T02:31:48;4.10;;;3.72;;
13404;SDS011;6773;51.192;7.024;2022-08-16T02:34:16;4.47;;;3.88;;
13404;SDS011;6773;51.192;7.024;2022-08-16T02:36:43;4.40;;;3.92;;
13404;SDS011;6773;51.192;7.024;2022-08-16T02:39:10;4.30;;;3.60;;
13404;SDS011;6773;51.192;7.024;2022-08-16T02:41:38;6.18;;;3.92;;
13404;SDS011;6773;51.192;7.024;2022-08-16T02:44:06;4.03;;;3.63;;
13404;SDS011;6773;51.192;7.024;2022-08-16T02:46:32;4.60;;;3.67;;
13404;SDS011;6773;51.192;7.024;2022-08-16T02:48:59;4.50;;;4.05;;
13404;SDS011;6773;51.192;7.024;2022-08-16T02:51:25;4.22;;;3.70;;
13404;SDS011;6773;51.192;7.024;2022-08-16T02:53:51;5.35;;;3.80;;
13404;SDS011;6773;51.192;7.024;2022-08-16T02:56:18;3.85;;;3.22;;
13404;SDS011;6773;51.192;7.024;2022-08-16T02:58:45;4.40;;;3.78;;
13404;SDS011;6773;51.192;7.024;2022-08-16T03:01:14;4.22;;;3.83;;
13404;SDS011;6773;51.192;7.024;2022-08-16T03:03:41;4.72;;;3.75;;
13404;SDS011;6773;51.192;7.024;2022-08-16T03:06:07;4.15;;;3.75;;
13404;SDS011;6773;51.192;7.024;2022-08-16T03:08:33;4.82;;;3.88;;
13404;SDS011;6773;51.192;7.024;2022-08-16T03:11:00;6.53;;;3.53;;
13404;SDS011;6773;51.192;7.024;2022-08-16T03:13:26;5.38;;;3.83;;
13404;SDS011;6773;51.192;7.024;2022-08-16T03:15:52;5.45;;;4.10;;
13404;SDS011;6773;51.192;7.024;2022-08-16T03:18:18;3.88;;;3.55;;
13404;SDS011;6773;51.192;7.024;2022-08-16T03:20:44;4.70;;;4.10;;
13404;SDS011;6773;51.192;7.024;2022-08-16T03:23:10;4.55;;;4.00;;
13404;SDS011;6773;51.192;7.024;2022-08-16T03:25:35;4.75;;;4.28;;
13404;SDS011;6773;51.192;7.024;2022-08-16T03:28:02;5.13;;;3.65;;
13404;SDS011;6773;51.192;7.024;2022-08-16T03:30:29;5.45;;;4.30;;
13404;SDS011;6773;51.192;7.024;2022-08-16T03:32:56;5.32;;;4.40;;
13404;SDS011;6773;51.192;7.024;2022-08-16T03:35:23;4.78;;;3.53;;
13404;SDS011;6773;51.192;7.024;2022-08-16T03:37:52;4.05;;;3.63;;
13404;SDS011;6773;51.192;7.024;2022-08-16T03:40:20;4.25;;;3.83;;
13404;SDS011;6773;51.192;7.024;2022-08-16T03:42:46;3.97;;;3.67;;
13404;SDS011;6773;51.192;7.024;2022-08-16T03:45:11;4.70;;;4.30;;
13404;SDS011;6773;51.192;7.024;2022-08-16T03:47:38;5.30;;;4.43;;
13404;SDS011;6773;51.192;7.024;2022-08-16T03:50:04;4.80;;;4.25;;
13404;SDS011;6773;51.192;7.024;2022-08-16T03:52:31;4.25;;;3.88;;
13404;SDS011;6773;51.192;7.024;2022-08-16T03:54:57;4.43;;;4.00;;
13404;SDS011;6773;51.192;7.024;2022-08-16T03:57:23;5.25;;;3.90;;
13404;SDS011;6773;51.192;7.024;2022-08-16T03:59:49;4.30;;;3.92;;
13404;SDS011;6773;51.192;7.024;2022-08-16T04:02:15;4.55;;;3.53;;
13404;SDS011;6773;51.192;7.024;2022-08-16T04:04:42;4.57;;;3.75;;
13404;SDS011;6773;51.192;7.024;2022-08-16T04:07:08;4.20;;;3.65;;
13404;SDS011;6773;51.192;7.024;2022-08-16T04:09:34;5.25;;;3.50;;
13404;SDS011;6773;51.192;7.024;2022-08-16T04:12:00;4.40;;;4.00;;
13404;SDS011;6773;51.192;7.024;2022-08-16T04:14:30;4.32;;;3.92;;
13404;SDS011;6773;51.192;7.024;2022-08-16T04:16:55;4.60;;;3.65;;
13404;SDS011;6773;51.192;7.024;2022-08-16T04:19:21;4.38;;;3.85;;
13404;SDS011;6773;51.192;7.024;2022-08-16T04:21:51;5.38;;;3.80;;
13404;SDS011;6773;51.192;7.024;2022-08-16T04:24:18;5.55;;;4.00;;
13404;SDS011;6773;51.192;7.024;2022-08-16T04:26:44;4.63;;;4.10;;
13404;SDS011;6773;51.192;7.024;2022-08-16T04:29:10;4.35;;;3.92;;
13404;SDS011;6773;51.192;7.024;2022-08-16T04:31:35;4.18;;;3.78;;
13404;SDS011;6773;51.192;7.024;2022-08-16T04:34:02;4.32;;;3.92;;
13404;SDS011;6773;51.192;7.024;2022-08-16T04:36:27;4.93;;;4.22;;
13404;SDS011;6773;51.192;7.024;2022-08-16T04:38:53;5.80;;;4.20;;
13404;SDS011;6773;51.192;7.024;2022-08-16T04:41:20;5.05;;;4.50;;
13404;SDS011;6773;51.192;7.024;2022-08-16T04:43:46;4.38;;;3.75;;
13404;SDS011;6773;51.192;7.024;2022-08-16T04:46:12;6.97;;;4.10;;
13404;SDS011;6773;51.192;7.024;2022-08-16T04:48:39;6.38;;;4.13;;
13404;SDS011;6773;51.192;7.024;2022-08-16T04:51:06;4.40;;;4.00;;
13404;SDS011;6773;51.192;7.024;2022-08-16T04:53:32;5.13;;;4.07;;
13404;SDS011;6773;51.192;7.024;2022-08-16T04:55:58;5.20;;;3.75;;
13404;SDS011;6773;51.192;7.024;2022-08-16T04:58:24;4.18;;;3.75;;
13404;SDS011;6773;51.192;7.024;2022-08-16T05:00:50;4.25;;;3.85;;
13404;SDS011;6773;51.192;7.024;2022-08-16T05:03:16;6.00;;;4.05;;
13404;SDS011;6773;51.192;7.024;2022-08-16T05:05:41;4.85;;;4.38;;
13404;SDS011;6773;51.192;7.024;2022-08-16T05:08:08;5.82;;;4.30;;
13404;SDS011;6773;51.192;7.024;2022-08-16T05:10:34;4.78;;;4.05;;
13404;SDS011;6773;51.192;7.024;2022-08-16T05:13:00;4.40;;;4.00;;
13404;SDS011;6773;51.192;7.024;2022-08-16T05:15:27;5.50;;;3.88;;
13404;SDS011;6773;51.192;7.024;2022-08-16T05:17:53;4.40;;;3.83;;
13404;SDS011;6773;51.192;7.024;2022-08-16T05:20:19;6.43;;;3.85;;
13404;SDS011;6773;51.192;7.024;2022-08-16T05:22:45;4.63;;;4.15;;
13404;SDS011;6773;51.192;7.024;2022-08-16T05:25:11;4.53;;;4.10;;
13404;SDS011;6773;51.192;7.024;2022-08-16T05:27:38;7.85;;;4.03;;
13404;SDS011;6773;51.192;7.024;2022-08-16T05:30:05;4.05;;;3.63;;
13404;SDS011;6773;51.192;7.024;2022-08-16T05:32:32;4.00;;;3.63;;
13404;SDS011;6773;51.192;7.024;2022-08-16T05:34:58;5.78;;;4.35;;
13404;SDS011;6773;51.192;7.024;2022-08-16T05:37:24;5.00;;;4.05;;
13404;SDS011;6773;51.192;7.024;2022-08-16T05:39:50;4.82;;;4.43;;
13404;SDS011;6773;51.192;7.024;2022-08-16T05:42:16;4.43;;;4.03;;
13404;SDS011;6773;51.192;7.024;2022-08-16T05:44:42;4.30;;;4.00;;
13404;SDS011;6773;51.192;7.024;2022-08-16T05:47:07;4.78;;;4.03;;
13404;SDS011;6773;51.192;7.024;2022-08-16T05:49:33;5.90;;;3.88;;
13404;SDS011;6773;51.192;7.024;2022-08-16T05:51:59;4.20;;;3.80;;
13404;SDS011;6773;51.192;7.024;2022-08-16T05:54:25;4.35;;;3.95;;
13404;SDS011;6773;51.192;7.024;2022-08-16T05:56:52;4.43;;;4.00;;
13404;SDS011;6773;51.192;7.024;2022-08-16T05:59:20;4.10;;;3.70;;
13404;SDS011;6773;51.192;7.024;2022-08-16T06:01:47;3.20;;;2.97;;
13404;SDS011;6773;51.192;7.024;2022-08-16T06:04:14;5.03;;;4.18;;
13404;SDS011;6773;51.192;7.024;2022-08-16T06:06:41;3.60;;;3.30;;
13404;SDS011;6773;51.192;7.024;2022-08-16T06:09:07;4.35;;;3.60;;
13404;SDS011;6773;51.192;7.024;2022-08-16T06:11:33;3.80;;;3.38;;
13404;SDS011;6773;51.192;7.024;2022-08-16T06:13:59;3.70;;;3.33;;
13404;SDS011;6773;51.192;7.024;2022-08-16T06:16:25;4.50;;;3.80;;
13404;SDS011;6773;51.192;7.024;2022-08-16T06:18:50;3.90;;;3.60;;
13404;SDS011;6773;51.192;7.024;2022-08-16T06:21:16;6.47;;;4.22;;
13404;SDS011;6773;51.192;7.024;2022-08-16T06:23:41;5.88;;;3.92;;
13404;SDS011;6773;51.192;7.024;2022-08-16T06:26:07;4.93;;;3.80;;
13404;SDS011;6773;51.192;7.024;2022-08-16T06:28:33;3.53;;;3.22;;
13404;SDS011;6773;51.192;7.024;2022-08-16T06:30:59;4.80;;;3.85;;
13404;SDS011;6773;51.192;7.024;2022-08-16T06:33:26;5.32;;;4.00;;
13404;SDS011;6773;51.192;7.024;2022-08-16T06:35:52;5.10;;;3.67;;
13404;SDS011;6773;51.192;7.024;2022-08-16T06:38:19;4.00;;;3.60;;
13404;SDS011;6773;51.192;7.024;2022-08-16T06:40:46;5.15;;;3.63;;
13404;SDS011;6773;51.192;7.024;2022-08-16T06:43:11;4.20;;;3.50;;
13404;SDS011;6773;51.192;7.024;2022-08-16T06:45:37;5.60;;;3.80;;
13404;SDS011;6773;51.192;7.024;2022-08-16T06:48:05;4.55;;;3.97;;
13404;SDS011;6773;51.192;7.024;2022-08-16T06:50:31;4.30;;;3.90;;
13404;SDS011;6773;51.192;7.024;2022-08-16T06:52:57;5.25;;;4.13;;
13404;SDS011;6773;51.192;7.024;2022-08-16T06:55:25;4.97;;;4.10;;
13404;SDS011;6773;51.192;7.024;2022-08-16T06:57:51;4.72;;;3.63;;
13404;SDS011;6773;51.192;7.024;2022-08-16T07:00:18;4.35;;;3.95;;
13404;SDS011;6773;51.192;7.024;2022-08-16T07:02:45;5.18;;;3.67;;
13404;SDS011;6773;51.192;7.024;2022-08-16T07:05:12;4.20;;;3.38;;
13404;SDS011;6773;51.192;7.024;2022-08-16T07:07:39;3.13;;;2.88;;
13404;SDS011;6773;51.192;7.024;2022-08-16T07:10:05;5.30;;;3.75;;
13404;SDS011;6773;51.192;7.024;2022-08-16T07:12:32;4.93;;;3.95;;
13404;SDS011;6773;51.192;7.024;2022-08-16T07:14:58;4.80;;;4.38;;
13404;SDS011;6773;51.192;7.024;2022-08-16T07:17:25;6.95;;;3.78;;
13404;SDS011;6773;51.192;7.024;2022-08-16T07:19:52;4.50;;;4.10;;
13404;SDS011;6773;51.192;7.024;2022-08-16T07:22:18;4.63;;;3.90;;
13404;SDS011;6773;51.192;7.024;2022-08-16T07:24:44;4.43;;;4.00;;
13404;SDS011;6773;51.192;7.024;2022-08-16T07:27:10;4.18;;;3.78;;
13404;SDS011;6773;51.192;7.024;2022-08-16T07:29:36;4.60;;;4.03;;
13404;SDS011;6773;51.192;7.024;2022-08-16T07:32:03;4.10;;;3.72;;
13404;SDS011;6773;51.192;7.024;2022-08-16T07:34:29;7.18;;;4.03;;
13404;SDS011;6773;51.192;7.024;2022-08-16T07:36:56;5.03;;;4.43;;
13404;SDS011;6773;51.192;7.024;2022-08-16T07:39:23;5.32;;;3.40;;
13404;SDS011;6773;51.192;7.024;2022-08-16T07:41:49;3.70;;;3.40;;
13404;SDS011;6773;51.192;7.024;2022-08-16T07:44:15;5.35;;;4.35;;
13404;SDS011;6773;51.192;7.024;2022-08-16T07:46:40;4.88;;;4.47;;
13404;SDS011;6773;51.192;7.024;2022-08-16T07:49:06;5.80;;;4.45;;
13404;SDS011;6773;51.192;7.024;2022-08-16T07:51:32;4.25;;;3.85;;
13404;SDS011;6773;51.192;7.024;2022-08-16T07:54:00;4.30;;;3.90;;
13404;SDS011;6773;51.192;7.024;2022-08-16T07:56:27;6.43;;;4.82;;
13404;SDS011;6773;51.192;7.024;2022-08-16T07:58:54;5.25;;;4.45;;
13404;SDS011;6773;51.192;7.024;2022-08-16T08:01:20;5.40;;;4.93;;
13404;SDS011;6773;51.192;7.024;2022-08-16T08:03:47;7.10;;;4.78;;
13404;SDS011;6773;51.192;7.024;2022-08-16T08:06:14;5.85;;;4.93;;
13404;SDS011;6773;51.192;7.024;2022-08-16T08:08:41;3.53;;;3.22;;
13404;SDS011;6773;51.192;7.024;2022-08-16T08:11:07;4.60;;;3.75;;
13404;SDS011;6773;51.192;7.024;2022-08-16T08:13:33;4.60;;;4.00;;
13404;SDS011;6773;51.192;7.024;2022-08-16T08:15:59;5.53;;;4.50;;
13404;SDS011;6773;51.192;7.024;2022-08-16T08:18:25;4.55;;;4.07;;
13404;SDS011;6773;51.192;7.024;2022-08-16T08:20:51;4.30;;;4.00;;
13404;SDS011;6773;51.192;7.024;2022-08-16T08:23:16;4.25;;;3.50;;
13404;SDS011;6773;51.192;7.024;2022-08-16T08:25:44;6.53;;;4.18;;
13404;SDS011;6773;51.192;7.024;2022-08-16T08:28:10;5.00;;;3.60;;
13404;SDS011;6773;51.192;7.024;2022-08-16T08:30:36;4.30;;;3.80;;
13404;SDS011;6773;51.192;7.024;2022-08-16T08:33:02;6.43;;;4.20;;
13404;SDS011;6773;51.192;7.024;2022-08-16T08:35:27;4.65;;;4.25;;
13404;SDS011;6773;51.192;7.024;2022-08-16T08:37:53;7.10;;;3.95;;
13404;SDS011;6773;51.192;7.024;2022-08-16T08:40:19;6.15;;;5.35;;
13404;SDS011;6773;51.192;7.024;2022-08-16T08:42:46;7.43;;;4.82;;
13404;SDS011;6773;51.192;7.024;2022-08-16T08:45:13;6.28;;;4.82;;
13404;SDS011;6773;51.192;7.024;2022-08-16T08:47:39;5.13;;;4.60;;
13404;SDS011;6773;51.192;7.024;2022-08-16T08:50:06;8.10;;;4.70;;
13404;SDS011;6773;51.192;7.024;2022-08-16T08:52:32;5.40;;;4.90;;
13404;SDS011;6773;51.192;7.024;2022-08-16T08:54:58;5.45;;;4.50;;
13404;SDS011;6773;51.192;7.024;2022-08-16T08:57:25;6.80;;;5.03;;
13404;SDS011;6773;51.192;7.024;2022-08-16T08:59:50;9.38;;;5.68;;
13404;SDS011;6773;51.192;7.024;2022-08-16T09:02:16;7.10;;;5.63;;
13404;SDS011;6773;51.192;7.024;2022-08-16T09:04:42;7.00;;;4.55;;
13404;SDS011;6773;51.192;7.024;2022-08-16T09:07:09;8.32;;;5.15;;
13404;SDS011;6773;51.192;7.024;2022-08-16T09:09:35;6.38;;;5.25;;
13404;SDS011;6773;51.192;7.024;2022-08-16T09:12:02;5.40;;;4.90;;
13404;SDS011;6773;51.192;7.024;2022-08-16T09:14:29;6.43;;;5.70;;
13404;SDS011;6773;51.192;7.024;2022-08-16T09:16:55;11.60;;;5.10;;
13404;SDS011;6773;51.192;7.024;2022-08-16T09:19:20;7.15;;;6.13;;
13404;SDS011;6773;51.192;7.024;2022-08-16T09:21:47;5.35;;;4.85;;
13404;SDS011;6773;51.192;7.024;2022-08-16T09:24:15;7.18;;;4.90;;
13404;SDS011;6773;51.192;7.024;2022-08-16T09:26:43;6.93;;;4.80;;
13404;SDS011;6773;51.192;7.024;2022-08-16T09:29:09;9.23;;;5.63;;
13404;SDS011;6773;51.192;7.024;2022-08-16T09:31:34;8.52;;;5.97;;
13404;SDS011;6773;51.192;7.024;2022-08-16T09:34:01;7.78;;;5.30;;
13404;SDS011;6773;51.192;7.024;2022-08-16T09:36:27;6.97;;;5.03;;
13404;SDS011;6773;51.192;7.024;2022-08-16T09:38:54;7.47;;;5.47;;
13404;SDS011;6773;51.192;7.024;2022-08-16T09:41:22;8.95;;;6.07;;
13404;SDS011;6773;51.192;7.024;2022-08-16T09:43:48;6.13;;;4.93;;
13404;SDS011;6773;51.192;7.024;2022-08-16T09:46:14;9.23;;;5.15;;
13404;SDS011;6773;51.192;7.024;2022-08-16T09:48:40;6.15;;;4.63;;
13404;SDS011;6773;51.192;7.024;2022-08-16T09:51:07;5.78;;;4.82;;
13404;SDS011;6773;51.192;7.024;2022-08-16T09:53:34;6.70;;;6.00;;
13404;SDS011;6773;51.192;7.024;2022-08-16T09:56:01;6.65;;;5.95;;
13404;SDS011;6773;51.192;7.024;2022-08-16T09:58:29;9.05;;;5.18;;
13404;SDS011;6773;51.192;7.024;2022-08-16T10:00:55;6.18;;;5.20;;
13404;SDS011;6773;51.192;7.024;2022-08-16T10:03:20;10.45;;;4.28;;
13404;SDS011;6773;51.192;7.024;2022-08-16T10:05:54;12.40;;;5.35;;
13404;SDS011;6773;51.192;7.024;2022-08-16T10:08:20;6.50;;;5.47;;
13404;SDS011;6773;51.192;7.024;2022-08-16T10:10:45;8.88;;;5.78;;
13404;SDS011;6773;51.192;7.024;2022-08-16T10:13:31;8.10;;;5.80;;
13404;SDS011;6773;51.192;7.024;2022-08-16T10:16:00;7.65;;;5.60;;
13404;SDS011;6773;51.192;7.024;2022-08-16T10:18:26;8.43;;;4.80;;
13404;SDS011;6773;51.192;7.024;2022-08-16T10:20:54;6.38;;;5.18;;
13404;SDS011;6773;51.192;7.024;2022-08-16T10:23:20;6.97;;;4.47;;
13404;SDS011;6773;51.192;7.024;2022-08-16T10:25:46;6.43;;;5.57;;
13404;SDS011;6773;51.192;7.024;2022-08-16T10:28:12;5.82;;;4.50;;
13404;SDS011;6773;51.192;7.024;2022-08-16T10:30:39;8.18;;;5.22;;
13404;SDS011;6773;51.192;7.024;2022-08-16T10:33:07;6.45;;;5.28;;
13404;SDS011;6773;51.192;7.024;2022-08-16T10:35:37;7.78;;;5.00;;
13404;SDS011;6773;51.192;7.024;2022-08-16T10:38:04;7.07;;;5.43;;
13404;SDS011;6773;51.192;7.024;2022-08-16T10:40:29;8.18;;;5.45;;
13404;SDS011;6773;51.192;7.024;2022-08-16T10:42:55;5.93;;;4.47;;
13404;SDS011;6773;51.192;7.024;2022-08-16T10:45:24;7.40;;;4.55;;
13404;SDS011;6773;51.192;7.024;2022-08-16T10:47:50;8.75;;;4.72;;
13404;SDS011;6773;51.192;7.024;2022-08-16T10:50:16;6.30;;;5.15;;
13404;SDS011;6773;51.192;7.024;2022-08-16T10:52:42;6.15;;;4.90;;
13404;SDS011;6773;51.192;7.024;2022-08-16T10:55:08;7.78;;;4.80;;
13404;SDS011;6773;51.192;7.024;2022-08-16T10:57:35;5.90;;;4.97;;
13404;SDS011;6773;51.192;7.024;2022-08-16T11:00:02;6.68;;;5.10;;
13404;SDS011;6773;51.192;7.024;2022-08-16T11:02:34;5.88;;;4.68;;
13404;SDS011;6773;51.192;7.024;2022-08-16T11:05:01;5.93;;;4.47;;
13404;SDS011;6773;51.192;7.024;2022-08-16T11:07:27;5.95;;;4.20;;
13404;SDS011;6773;51.192;7.024;2022-08-16T11:09:53;5.63;;;3.80;;
13404;SDS011;6773;51.192;7.024;2022-08-16T11:12:18;6.25;;;3.97;;
13404;SDS011;6773;51.192;7.024;2022-08-16T11:14:44;7.25;;;3.80;;
13404;SDS011;6773;51.192;7.024;2022-08-16T11:17:09;7.82;;;4.30;;
13404;SDS011;6773;51.192;7.024;2022-08-16T11:19:37;7.13;;;5.05;;
13404;SDS011;6773;51.192;7.024;2022-08-16T11:22:05;7.95;;;5.18;;
13404;SDS011;6773;51.192;7.024;2022-08-16T11:24:31;10.20;;;4.45;;
13404;SDS011;6773;51.192;7.024;2022-08-16T11:26:57;5.95;;;4.40;;
13404;SDS011;6773;51.192;7.024;2022-08-16T11:29:24;7.90;;;4.40;;
13404;SDS011;6773;51.192;7.024;2022-08-16T11:31:50;6.18;;;3.67;;
13404;SDS011;6773;51.192;7.024;2022-08-16T11:34:16;6.20;;;4.30;;
13404;SDS011;6773;51.192;7.024;2022-08-16T11:36:41;5.47;;;4.25;;
13404;SDS011;6773;51.192;7.024;2022-08-16T11:39:08;6.07;;;3.90;;
13404;SDS011;6773;51.192;7.024;2022-08-16T11:41:33;5.28;;;3.92;;
13404;SDS011;6773;51.192;7.024;2022-08-16T11:44:02;6.25;;;4.10;;
13404;SDS011;6773;51.192;7.024;2022-08-16T11:46:29;7.05;;;4.00;;
13404;SDS011;6773;51.192;7.024;2022-08-16T11:48:55;5.88;;;3.75;;
13404;SDS011;6773;51.192;7.024;2022-08-16T11:51:21;6.90;;;4.75;;
13404;SDS011;6773;51.192;7.024;2022-08-16T11:53:46;4.65;;;3.90;;
13404;SDS011;6773;51.192;7.024;2022-08-16T11:56:12;6.38;;;4.03;;
13404;SDS011;6773;51.192;7.024;2022-08-16T11:58:38;5.90;;;3.92;;
13404;SDS011;6773;51.192;7.024;2022-08-16T12:01:03;8.00;;;3.80;;
13404;SDS011;6773;51.192;7.024;2022-08-16T12:03:30;5.32;;;4.47;;
13404;SDS011;6773;51.192;7.024;2022-08-16T12:05:57;4.93;;;3.53;;
13404;SDS011;6773;51.192;7.024;2022-08-16T12:08:26;5.03;;;3.92;;
13404;SDS011;6773;51.192;7.024;2022-08-16T12:10:53;6.55;;;4.30;;
13404;SDS011;6773;51.192;7.024;2022-08-16T12:13:19;5.85;;;4.00;;
13404;SDS011;6773;51.192;7.024;2022-08-16T12:15:44;4.30;;;3.67;;
13404;SDS011;6773;51.192;7.024;2022-08-16T12:18:10;5.70;;;3.75;;
13404;SDS011;6773;51.192;7.024;2022-08-16T12:20:38;5.25;;;3.50;;
13404;SDS011;6773;51.192;7.024;2022-08-16T12:23:06;5.40;;;3.65;;
13404;SDS011;6773;51.192;7.024;2022-08-16T12:25:32;6.53;;;4.20;;
13404;SDS011;6773;51.192;7.024;2022-08-16T12:27:59;9.98;;;3.88;;
13404;SDS011;6773;51.192;7.024;2022-08-16T12:30:27;4.57;;;3.30;;
13404;SDS011;6773;51.192;7.024;2022-08-16T12:32:59;4.95;;;4.03;;
13404;SDS011;6773;51.192;7.024;2022-08-16T12:35:26;8.07;;;3.67;;
13404;SDS011;6773;51.192;7.024;2022-08-16T12:37:54;3.65;;;3.33;;
13404;SDS011;6773;51.192;7.024;2022-08-16T12:40:23;6.30;;;4.10;;
13404;SDS011;6773;51.192;7.024;2022-08-16T12:42:53;5.03;;;3.33;;
13404;SDS011;6773;51.192;7.024;2022-08-16T12:45:21;5.30;;;3.75;;
13404;SDS011;6773;51.192;7.024;2022-08-16T12:47:47;7.95;;;4.30;;
13404;SDS011;6773;51.192;7.024;2022-08-16T12:50:32;4.82;;;3.88;;
13404;SDS011;6773;51.192;7.024;2022-08-16T12:52:58;6.72;;;3.80;;
13404;SDS011;6773;51.192;7.024;2022-08-16T12:55:24;4.95;;;3.47;;
13404;SDS011;6773;51.192;7.024;2022-08-16T12:57:54;4.40;;;3.53;;
13404;SDS011;6773;51.192;7.024;2022-08-16T13:00:20;4.68;;;3.60;;
13404;SDS011;6773;51.192;7.024;2022-08-16T13:02:47;3.90;;;3.42;;
13404;SDS011;6773;51.192;7.024;2022-08-16T13:05:13;5.60;;;3.60;;
13404;SDS011;6773;51.192;7.024;2022-08-16T13:07:41;5.30;;;3.97;;
13404;SDS011;6773;51.192;7.024;2022-08-16T13:10:08;4.63;;;4.13;;
13404;SDS011;6773;51.192;7.024;2022-08-16T13:12:38;3.72;;;3.38;;
13404;SDS011;6773;51.192;7.024;2022-08-16T13:15:08;6.32;;;4.30;;
13404;SDS011;6773;51.192;7.024;2022-08-16T13:17:37;4.63;;;3.63;;
13404;SDS011;6773;51.192;7.024;2022-08-16T13:20:05;6.35;;;3.75;;
13404;SDS011;6773;51.192;7.024;2022-08-16T13:22:32;5.95;;;3.45;;
13404;SDS011;6773;51.192;7.024;2022-08-16T13:24:59;5.38;;;3.50;;
13404;SDS011;6773;51.192;7.024;2022-08-16T13:27:25;7.75;;;3.95;;
13404;SDS011;6773;51.192;7.024;2022-08-16T13:29:50;6.72;;;4.00;;
13404;SDS011;6773;51.192;7.024;2022-08-16T13:32:16;6.32;;;3.78;;
13404;SDS011;6773;51.192;7.024;2022-08-16T13:34:41;4.78;;;3.30;;
13404;SDS011;6773;51.192;7.024;2022-08-16T13:37:07;6.07;;;3.22;;
13404;SDS011;6773;51.192;7.024;2022-08-16T13:39:33;6.72;;;3.20;;
13404;SDS011;6773;51.192;7.024;2022-08-16T13:41:59;5.45;;;3.65;;
13404;SDS011;6773;51.192;7.024;2022-08-16T13:44:28;5.75;;;3.45;;
13404;SDS011;6773;51.192;7.024;2022-08-16T13:46:54;4.20;;;3.22;;
13404;SDS011;6773;51.192;7.024;2022-08-16T13:49:20;4.55;;;3.47;;
13404;SDS011;6773;51.192;7.024;2022-08-16T13:51:46;4.93;;;3.50;;
13404;SDS011;6773;51.192;7.024;2022-08-16T13:54:12;5.68;;;3.38;;
13404;SDS011;6773;51.192;7.024;2022-08-16T13:56:38;4.88;;;3.38;;
13404;SDS011;6773;51.192;7.024;2022-08-16T13:59:06;4.78;;;3.58;;
13404;SDS011;6773;51.192;7.024;2022-08-16T14:01:34;5.18;;;3.40;;
13404;SDS011;6773;51.192;7.024;2022-08-16T14:03:59;4.80;;;3.80;;
13404;SDS011;6773;51.192;7.024;2022-08-16T14:06:25;3.65;;;3.05;;
13404;SDS011;6773;51.192;7.024;2022-08-16T14:08:51;5.07;;;3.75;;
13404;SDS011;6773;51.192;7.024;2022-08-16T14:11:17;6.57;;;3.80;;
13404;SDS011;6773;51.192;7.024;2022-08-16T14:13:42;6.10;;;3.42;;
13404;SDS011;6773;51.192;7.024;2022-08-16T14:16:09;6.57;;;3.42;;
13404;SDS011;6773;51.192;7.024;2022-08-16T14:18:35;5.53;;;2.97;;
13404;SDS011;6773;51.192;7.024;2022-08-16T14:21:01;5.75;;;3.33;;
13404;SDS011;6773;51.192;7.024;2022-08-16T14:23:26;9.00;;;3.47;;
13404;SDS011;6773;51.192;7.024;2022-08-16T14:25:52;5.55;;;3.30;;
13404;SDS011;6773;51.192;7.024;2022-08-16T14:28:18;4.90;;;3.38;;
13404;SDS011;6773;51.192;7.024;2022-08-16T14:30:44;6.45;;;4.05;;
13404;SDS011;6773;51.192;7.024;2022-08-16T14:33:10;6.97;;;4.03;;
13404;SDS011;6773;51.192;7.024;2022-08-16T14:35:35;6.95;;;3.58;;
13404;SDS011;6773;51.192;7.024;2022-08-16T14:38:02;4.47;;;3.97;;
13404;SDS011;6773;51.192;7.024;2022-08-16T14:40:28;4.70;;;3.90;;
13404;SDS011;6773;51.192;7.024;2022-08-16T14:42:55;5.00;;;4.00;;
13404;SDS011;6773;51.192;7.024;2022-08-16T14:45:22;6.18;;;4.05;;
13404;SDS011;6773;51.192;7.024;2022-08-16T14:47:50;5.10;;;3.67;;
13404;SDS011;6773;51.192;7.024;2022-08-16T14:50:17;5.82;;;3.65;;
13404;SDS011;6773;51.192;7.024;2022-08-16T14:52:48;5.85;;;3.53;;
13404;SDS011;6773;51.192;7.024;2022-08-16T14:55:17;5.88;;;3.75;;
13404;SDS011;6773;51.192;7.024;2022-08-16T14:57:43;4.78;;;3.90;;
13404;SDS011;6773;51.192;7.024;2022-08-16T15:00:10;4.45;;;3.40;;